Time;durP1;ratioP1;P1;durP2;ratioP2;P2;SDS_P1;SDS_P2;PMS_P1;PMS_P2;Temp;Humidity;BMP_temperature;BMP_pressure;BME280_temperature;BME280_humidity;BME280_pressure;Samples;Min_cycle;Max_cycle;Signal;HPM_P1;HPM_P2
2023/03/26 00:01:09;;;;;;;0.40;0.40;;;;;;;12.41;50.73;94445.91;4954373;28;20255;-66
2023/03/26 00:03:36;;;;;;;0.30;0.30;;;;;;;12.26;51.12;94430.03;4998811;28;20224;-64
2023/03/26 00:06:11;;;;;;;0.60;0.60;;;;;;;12.01;51.86;94433.84;5001252;28;20303;-65
2023/03/26 00:08:38;;;;;;;0.50;0.50;;;;;;;12.00;51.98;94433.03;4968338;28;20264;-64
2023/03/26 00:11:05;;;;;;;1.17;0.60;;;;;;;12.12;51.66;94438.72;4994853;28;20287;-67
2023/03/26 00:13:32;;;;;;;0.38;0.38;;;;;;;12.10;51.59;94436.22;4972032;28;20281;-66
2023/03/26 00:15:58;;;;;;;0.50;0.50;;;;;;;12.31;51.41;94430.31;4971940;28;20227;-66
2023/03/26 00:18:29;;;;;;;0.80;0.60;;;;;;;12.41;51.06;94438.00;4981845;28;20311;-65
2023/03/26 00:20:55;;;;;;;0.55;0.50;;;;;;;12.11;51.88;94430.00;4970150;28;20224;-66
2023/03/26 00:23:21;;;;;;;0.50;0.50;;;;;;;12.04;52.12;94433.50;4995295;28;20231;-66
2023/03/26 00:25:49;;;;;;;0.63;0.50;;;;;;;12.23;51.49;94424.31;4994489;28;20252;-66
2023/03/26 00:28:20;;;;;;;0.40;0.40;;;;;;;11.90;52.44;94417.44;4970624;28;20220;-66
2023/03/26 00:30:46;;;;;;;0.50;0.50;;;;;;;12.03;52.48;94418.66;4969385;28;20224;-63
2023/03/26 00:33:16;;;;;;;0.47;0.30;;;;;;;12.04;52.06;94409.78;4967388;28;20710;-64
2023/03/26 00:35:46;;;;;;;0.65;0.45;;;;;;;12.20;51.44;94409.66;4965184;28;20188;-64
2023/03/26 00:38:14;;;;;;;0.90;0.40;;;;;;;11.80;52.30;94408.91;4968880;28;20291;-64
2023/03/26 00:40:46;;;;;;;0.65;0.60;;;;;;;11.80;52.68;94406.28;4962883;28;20656;-64
2023/03/26 00:43:19;;;;;;;1.65;0.70;;;;;;;12.01;52.38;94418.84;4965455;28;20228;-64
2023/03/26 00:45:50;;;;;;;0.53;0.53;;;;;;;11.96;52.03;94404.56;4996404;28;20247;-65
2023/03/26 00:48:16;;;;;;;1.30;0.50;;;;;;;11.97;52.02;94408.81;4967890;28;20307;-65
2023/03/26 00:50:44;;;;;;;0.38;0.38;;;;;;;11.89;52.21;94405.28;4964503;28;20232;-65
2023/03/26 00:53:13;;;;;;;0.60;0.50;;;;;;;12.01;51.41;94400.41;4999568;28;20188;-65
2023/03/26 00:55:43;;;;;;;0.55;0.47;;;;;;;11.85;51.89;94411.84;4997733;28;20244;-65
2023/03/26 00:58:09;;;;;;;0.68;0.50;;;;;;;11.96;50.97;94401.94;4993961;28;20249;-65
2023/03/26 01:00:57;;;;;;;0.40;0.40;;;;;;;12.00;50.60;94409.31;4969651;28;20233;-65
2023/03/26 01:03:25;;;;;;;0.40;0.40;;;;;;;11.88;50.57;94403.63;4969818;28;20223;-65
2023/03/26 01:05:57;;;;;;;0.30;0.30;;;;;;;12.07;50.02;94406.78;4968874;28;20314;-64
2023/03/26 01:08:41;;;;;;;0.30;0.30;;;;;;;11.76;50.64;94406.78;4967814;28;20217;-66
2023/03/26 01:11:20;;;;;;;0.40;0.40;;;;;;;11.82;50.45;94404.28;4966340;28;20672;-66
2023/03/26 01:13:52;;;;;;;0.20;0.20;;;;;;;11.91;49.93;94408.53;4964417;28;20224;-64
2023/03/26 01:16:35;;;;;;;0.50;0.50;;;;;;;11.84;50.30;94410.22;4997802;28;20219;-64
2023/03/26 01:19:02;;;;;;;1.30;0.47;;;;;;;11.83;50.43;94413.00;4977389;28;20235;-64
2023/03/26 01:21:29;;;;;;;0.50;0.50;;;;;;;11.81;50.58;94420.25;4971366;28;20224;-63
2023/03/26 01:24:00;;;;;;;0.50;0.50;;;;;;;11.83;50.67;94419.09;4968957;28;20224;-64
2023/03/26 01:26:44;;;;;;;1.40;0.60;;;;;;;11.83;50.81;94429.63;4966733;28;20516;-64
2023/03/26 01:29:19;;;;;;;0.55;0.55;;;;;;;11.66;51.20;94430.72;4972728;28;20234;-64
2023/03/26 01:31:54;;;;;;;0.50;0.50;;;;;;;11.87;51.19;94428.34;4995252;28;20239;-64
2023/03/26 01:34:59;;;;;;;0.60;0.60;;;;;;;11.67;51.38;94429.72;4999260;28;20322;-63
2023/03/26 01:37:31;;;;;;;1.35;0.57;;;;;;;11.65;51.70;94436.97;4962153;28;20220;-65
2023/03/26 01:40:04;;;;;;;0.77;0.50;;;;;;;11.68;51.91;94437.47;4985603;28;20232;-63
2023/03/26 01:42:41;;;;;;;0.50;0.50;;;;;;;11.73;51.76;94431.66;4970179;28;20220;-63
2023/03/26 01:45:20;;;;;;;0.50;0.50;;;;;;;11.88;51.73;94426.50;4969886;28;20220;-66
2023/03/26 01:47:46;;;;;;;0.60;0.60;;;;;;;11.95;51.47;94431.88;4970700;28;20244;-65
2023/03/26 01:50:11;;;;;;;0.65;0.63;;;;;;;11.79;51.86;94432.81;4970944;28;20318;-65
2023/03/26 01:52:37;;;;;;;1.50;0.70;;;;;;;11.94;52.06;94438.97;4977777;28;20231;-65
2023/03/26 01:55:03;;;;;;;0.88;0.82;;;;;;;11.88;52.04;94448.41;4965757;28;20232;-65
2023/03/26 01:57:58;;;;;;;0.75;0.75;;;;;;;11.83;52.43;94452.53;4964927;28;20310;-65
2023/03/26 02:00:44;;;;;;;0.65;0.65;;;;;;;11.83;52.43;94434.91;4963740;28;20235;-64
2023/03/26 02:03:18;;;;;;;0.70;0.70;;;;;;;11.85;52.59;94430.28;4964211;28;20247;-65
2023/03/26 02:05:51;;;;;;;0.68;0.68;;;;;;;11.78;52.79;94439.03;4966612;28;20297;-64
2023/03/26 02:08:25;;;;;;;0.63;0.63;;;;;;;11.91;52.77;94432.25;4962326;28;20184;-64
2023/03/26 02:10:56;;;;;;;0.70;0.68;;;;;;;11.71;53.58;94441.56;4996805;28;20718;-64
2023/03/26 02:13:22;;;;;;;0.77;0.73;;;;;;;11.76;53.33;94438.38;4961599;28;20225;-67
2023/03/26 02:15:56;;;;;;;1.10;1.00;;;;;;;11.89;53.02;94436.88;4964437;28;20270;-66
2023/03/26 02:18:22;;;;;;;0.63;0.63;;;;;;;11.74;53.13;94443.03;4968025;28;20247;-63
2023/03/26 02:20:51;;;;;;;0.80;0.80;;;;;;;11.62;53.79;94438.13;4968825;28;20231;-63
2023/03/26 02:23:19;;;;;;;0.88;0.88;;;;;;;11.84;53.33;94436.56;4999681;28;20192;-63
2023/03/26 02:25:45;;;;;;;2.42;0.90;;;;;;;11.65;53.58;94432.53;4974281;28;20680;-63
2023/03/26 02:28:10;;;;;;;0.80;0.80;;;;;;;11.66;53.28;94431.53;4962088;28;20221;-63
2023/03/26 02:30:36;;;;;;;0.93;0.93;;;;;;;11.54;53.65;94434.72;4969411;28;20235;-63
2023/03/26 02:33:02;;;;;;;1.30;1.15;;;;;;;11.63;53.39;94431.06;4965230;28;20233;-63
2023/03/26 02:35:27;;;;;;;1.25;1.00;;;;;;;11.68;53.31;94441.88;4968791;28;20284;-64
2023/03/26 02:37:53;;;;;;;1.00;0.98;;;;;;;11.54;53.20;94440.00;4969140;28;20215;-63
2023/03/26 02:40:21;;;;;;;1.00;0.90;;;;;;;11.60;53.70;94436.66;4970143;28;20220;-63
2023/03/26 02:42:47;;;;;;;1.40;1.02;;;;;;;11.78;53.23;94444.31;4967944;28;20226;-65
2023/03/26 02:45:13;;;;;;;1.27;1.00;;;;;;;11.58;53.60;94443.94;4969669;28;20224;-65
2023/03/26 02:47:38;;;;;;;1.20;1.10;;;;;;;11.65;53.35;94448.34;4994112;28;20200;-65
2023/03/26 02:50:04;;;;;;;1.17;1.10;;;;;;;11.66;53.52;94451.78;4958951;28;20228;-65
2023/03/26 02:52:30;;;;;;;1.23;1.10;;;;;;;11.60;53.40;94457.72;4966619;28;20228;-67
2023/03/26 02:54:55;;;;;;;1.58;1.00;;;;;;;11.64;53.35;94461.66;4972420;28;20235;-63
2023/03/26 02:57:22;;;;;;;1.10;1.08;;;;;;;11.66;53.51;94457.88;4967977;28;20228;-63
2023/03/26 02:59:49;;;;;;;1.00;1.00;;;;;;;11.08;55.12;94460.88;4967886;28;20236;-63
2023/03/26 03:02:15;;;;;;;1.30;1.13;;;;;;;11.21;55.10;94467.25;4968340;28;20196;-64
2023/03/26 03:04:41;;;;;;;1.13;1.00;;;;;;;11.26;54.97;94472.03;4968575;28;20216;-63
2023/03/26 03:07:07;;;;;;;1.20;1.10;;;;;;;11.16;55.18;94474.00;4968098;28;20235;-64
2023/03/26 03:09:33;;;;;;;0.87;0.87;;;;;;;11.38;54.47;94473.28;4966571;28;20575;-65
2023/03/26 03:11:59;;;;;;;1.27;1.02;;;;;;;11.29;54.44;94479.56;4970886;28;20278;-65
2023/03/26 03:14:24;;;;;;;2.15;1.00;;;;;;;11.32;54.62;94471.34;5002559;28;20192;-65
2023/03/26 03:16:50;;;;;;;1.25;0.90;;;;;;;11.07;54.76;94481.13;5000252;28;20240;-65
2023/03/26 03:19:15;;;;;;;1.10;1.00;;;;;;;11.24;54.40;94487.16;4967588;28;20232;-64
2023/03/26 03:21:41;;;;;;;1.10;1.00;;;;;;;10.92;54.91;94480.16;4965944;28;20232;-65
2023/03/26 03:24:07;;;;;;;1.30;1.20;;;;;;;11.01;54.98;94484.41;4972096;28;20227;-64
2023/03/26 03:26:33;;;;;;;1.20;1.10;;;;;;;10.95;54.81;94483.25;4998772;28;20192;-66
2023/03/26 03:28:59;;;;;;;2.10;1.17;;;;;;;10.94;54.96;94489.50;4970622;28;20231;-64
2023/03/26 03:31:25;;;;;;;1.97;1.50;;;;;;;10.95;55.17;94492.97;4968106;28;20331;-64
2023/03/26 03:33:51;;;;;;;1.53;1.43;;;;;;;10.81;55.13;94497.91;5003980;28;20224;-64
2023/03/26 03:36:23;;;;;;;2.27;1.73;;;;;;;10.63;55.57;94493.81;4969241;28;20295;-64
2023/03/26 03:38:49;;;;;;;2.07;1.77;;;;;;;10.66;55.74;94490.84;4972647;28;20240;-64
2023/03/26 03:41:17;;;;;;;1.90;1.80;;;;;;;10.92;54.86;94494.13;4972004;28;20192;-64
2023/03/26 03:43:43;;;;;;;2.10;1.90;;;;;;;10.69;55.52;94477.38;4966478;28;20488;-64
2023/03/26 03:46:09;;;;;;;1.83;1.73;;;;;;;10.53;55.93;94479.03;4970543;28;20252;-63
2023/03/26 03:48:37;;;;;;;2.30;2.10;;;;;;;10.47;56.10;94473.59;5003658;28;20254;-63
2023/03/26 03:51:03;;;;;;;2.55;1.90;;;;;;;10.66;55.96;94493.47;4975759;28;20235;-63
2023/03/26 03:53:29;;;;;;;2.10;2.00;;;;;;;10.56;56.35;94493.66;4965886;28;20243;-64
2023/03/26 03:55:55;;;;;;;2.67;2.35;;;;;;;10.29;57.12;94503.50;4967985;28;20275;-63
2023/03/26 03:58:23;;;;;;;2.70;2.50;;;;;;;10.51;56.37;94504.66;4971918;28;20236;-63
2023/03/26 04:00:52;;;;;;;2.50;2.15;;;;;;;10.68;55.38;94502.84;4968935;28;20243;-64
2023/03/26 04:03:18;;;;;;;2.67;2.47;;;;;;;10.56;56.09;94497.09;4967392;28;20236;-63
2023/03/26 04:05:48;;;;;;;3.30;2.50;;;;;;;10.59;55.92;94498.59;4997193;28;20219;-63
2023/03/26 04:08:15;;;;;;;2.50;2.30;;;;;;;10.54;56.14;94500.88;4998806;28;20260;-63
2023/03/26 04:10:42;;;;;;;3.42;2.40;;;;;;;10.33;56.75;94502.19;4968648;28;20229;-63
2023/03/26 04:13:08;;;;;;;2.57;2.37;;;;;;;10.26;57.17;94502.94;4967953;28;20228;-63
2023/03/26 04:15:34;;;;;;;3.00;2.67;;;;;;;10.42;56.63;94515.31;4978730;28;20583;-63
2023/03/26 04:18:00;;;;;;;2.37;2.17;;;;;;;10.53;55.95;94522.88;4968102;28;20270;-64
2023/03/26 04:20:26;;;;;;;2.42;2.22;;;;;;;10.65;55.98;94526.03;4966917;28;20246;-65
2023/03/26 04:22:51;;;;;;;2.58;2.38;;;;;;;10.70;55.84;94536.88;4971443;28;20236;-64
2023/03/26 04:25:17;;;;;;;3.25;2.58;;;;;;;10.47;56.61;94541.94;4967846;28;20224;-65
2023/03/26 04:27:43;;;;;;;2.67;2.47;;;;;;;10.68;55.84;94552.81;4973177;28;20242;-65
2023/03/26 04:30:14;;;;;;;2.70;2.50;;;;;;;10.74;55.95;94559.22;4993063;28;20278;-64
2023/03/26 04:32:41;;;;;;;3.15;2.90;;;;;;;10.71;55.85;94556.91;4979618;28;20188;-65
2023/03/26 04:35:10;;;;;;;2.78;2.58;;;;;;;10.77;55.87;94566.78;4997273;28;20279;-65
2023/03/26 04:37:39;;;;;;;3.20;3.00;;;;;;;10.66;55.89;94560.03;4969948;28;20263;-65
2023/03/26 04:40:18;;;;;;;3.47;3.17;;;;;;;10.81;55.81;94563.66;4959601;28;20248;-66
2023/03/26 04:42:45;;;;;;;3.05;2.85;;;;;;;10.94;55.27;94568.44;4979836;28;20260;-65
2023/03/26 04:45:16;;;;;;;3.33;2.97;;;;;;;10.92;55.17;94585.38;4969312;28;20235;-65
2023/03/26 04:47:42;;;;;;;5.13;2.87;;;;;;;10.80;55.39;94579.63;4964857;28;20192;-67
2023/03/26 04:50:10;;;;;;;3.05;2.85;;;;;;;10.73;55.37;94576.00;4971940;28;20282;-66
2023/03/26 04:52:36;;;;;;;3.40;3.10;;;;;;;10.77;55.05;94579.91;4974147;28;20910;-66
2023/03/26 04:55:01;;;;;;;3.08;2.70;;;;;;;10.70;54.92;94571.88;4978213;28;20233;-66
2023/03/26 04:57:50;;;;;;;3.25;2.97;;;;;;;10.74;54.73;94583.69;4971186;28;20223;-65
2023/03/26 05:00:19;;;;;;;2.83;2.63;;;;;;;10.65;54.97;94583.88;4970515;28;20240;-66
2023/03/26 05:02:48;;;;;;;3.35;3.15;;;;;;;10.80;54.13;94579.63;4970648;28;20202;-67
2023/03/26 05:05:14;;;;;;;3.50;3.20;;;;;;;10.57;54.71;94569.72;4967040;28;20187;-67
2023/03/26 05:07:40;;;;;;;3.30;3.10;;;;;;;10.65;54.27;94575.97;4963602;28;20228;-66
2023/03/26 05:10:06;;;;;;;3.73;3.43;;;;;;;10.53;54.04;94580.72;4968250;28;20227;-67
2023/03/26 05:12:32;;;;;;;3.85;3.55;;;;;;;10.87;52.86;94580.59;4971043;28;20220;-65
2023/03/26 05:14:57;;;;;;;4.72;4.25;;;;;;;10.53;53.62;94586.81;4967526;28;20595;-65
2023/03/26 05:17:23;;;;;;;4.23;3.93;;;;;;;10.64;53.33;94592.72;4970663;28;20268;-65
2023/03/26 05:19:50;;;;;;;4.38;3.97;;;;;;;10.50;53.42;94592.38;4967818;28;20236;-64
2023/03/26 05:22:16;;;;;;;4.38;4.07;;;;;;;10.53;53.04;94607.84;4964981;28;20331;-63
2023/03/26 05:24:42;;;;;;;4.73;4.43;;;;;;;10.68;52.81;94596.69;4953793;28;20233;-63
2023/03/26 05:27:12;;;;;;;4.45;4.05;;;;;;;10.85;52.77;94593.06;4966052;28;20295;-63
2023/03/26 05:29:37;;;;;;;5.15;4.78;;;;;;;10.60;53.57;94608.00;4956515;28;20192;-64
2023/03/26 05:32:03;;;;;;;5.50;5.10;;;;;;;10.60;53.56;94610.66;4969075;28;20185;-62
2023/03/26 05:34:28;;;;;;;5.50;4.97;;;;;;;10.73;53.61;94607.53;4984011;28;20231;-62
2023/03/26 05:36:54;;;;;;;5.68;5.20;;;;;;;10.78;53.87;94619.22;4965037;28;20232;-62
2023/03/26 05:39:24;;;;;;;5.55;5.10;;;;;;;10.64;54.37;94614.59;4967720;28;20248;-63
2023/03/26 05:41:50;;;;;;;5.90;5.40;;;;;;;10.75;54.43;94613.47;4967538;28;20224;-63
2023/03/26 05:44:15;;;;;;;6.20;5.60;;;;;;;10.68;54.38;94617.72;4998741;28;20224;-62
2023/03/26 05:46:40;;;;;;;6.13;5.63;;;;;;;10.73;54.63;94615.44;4968049;28;20225;-63
2023/03/26 05:49:06;;;;;;;5.93;5.53;;;;;;;10.83;54.29;94605.59;4970134;28;20228;-63
2023/03/26 05:51:31;;;;;;;6.03;5.63;;;;;;;10.81;54.33;94618.88;4967224;28;20900;-63
2023/03/26 05:53:57;;;;;;;6.40;5.90;;;;;;;10.79;54.56;94612.97;4967290;28;20223;-63
2023/03/26 05:56:22;;;;;;;6.30;5.68;;;;;;;10.78;54.61;94623.66;4968058;28;20200;-63
2023/03/26 05:58:48;;;;;;;6.18;5.68;;;;;;;10.72;54.27;94617.25;4968307;28;20284;-63
2023/03/26 06:01:17;;;;;;;6.55;6.05;;;;;;;10.96;53.79;94605.06;4968898;28;20238;-63
2023/03/26 06:03:44;;;;;;;7.00;6.30;;;;;;;11.07;53.69;94604.78;4967907;28;20236;-62
2023/03/26 06:06:15;;;;;;;6.37;5.77;;;;;;;11.16;52.69;94601.16;4993717;28;20250;-63
2023/03/26 06:08:51;;;;;;;5.68;5.28;;;;;;;11.12;52.45;94599.84;4961767;28;20282;-64
2023/03/26 06:11:20;;;;;;;5.90;5.28;;;;;;;10.95;53.06;94591.13;4968203;28;20192;-64
2023/03/26 06:13:46;;;;;;;5.68;5.18;;;;;;;11.24;51.25;94597.69;4967551;28;20215;-64
2023/03/26 06:16:13;;;;;;;5.70;5.20;;;;;;;10.99;51.83;94592.44;4967311;28;20318;-63
2023/03/26 06:18:39;;;;;;;5.73;5.00;;;;;;;11.01;51.73;94592.25;4993592;28;20310;-65
2023/03/26 06:21:05;;;;;;;5.13;4.73;;;;;;;10.91;51.88;94597.69;4965605;28;20299;-65
2023/03/26 06:23:31;;;;;;;6.23;5.50;;;;;;;11.06;51.77;94604.94;4966771;28;20188;-65
2023/03/26 06:25:57;;;;;;;6.27;5.77;;;;;;;11.29;50.69;94605.09;4973814;28;20183;-64
2023/03/26 06:28:22;;;;;;;5.70;5.30;;;;;;;11.33;50.72;94594.03;4998688;28;20426;-65
2023/03/26 06:30:48;;;;;;;6.50;5.90;;;;;;;11.31;51.04;94608.38;4995680;28;20232;-64
2023/03/26 06:33:15;;;;;;;5.30;4.93;;;;;;;11.30;50.13;94612.81;4972203;28;20291;-65
2023/03/26 06:35:41;;;;;;;6.88;5.22;;;;;;;11.46;49.62;94596.97;4969109;28;20250;-62
2023/03/26 06:38:07;;;;;;;5.37;4.97;;;;;;;11.27;49.89;94602.63;4996417;28;20199;-65
2023/03/26 06:40:33;;;;;;;6.05;5.60;;;;;;;11.43;49.63;94592.06;4967668;28;20215;-62
2023/03/26 06:42:59;;;;;;;5.20;4.70;;;;;;;11.17;50.20;94594.91;4965384;28;20235;-65
2023/03/26 06:45:25;;;;;;;7.07;5.50;;;;;;;11.39;49.96;94603.94;4977409;28;20232;-66
2023/03/26 06:47:51;;;;;;;5.78;5.28;;;;;;;11.45;49.94;94605.88;4971873;28;20227;-66
2023/03/26 06:50:17;;;;;;;5.20;4.72;;;;;;;11.57;48.60;94616.06;4970307;28;20290;-65
2023/03/26 06:52:42;;;;;;;6.30;5.70;;;;;;;11.44;48.29;94606.03;4968766;28;20248;-65
2023/03/26 06:55:09;;;;;;;6.25;5.75;;;;;;;11.34;49.00;94606.22;5007852;28;20238;-65
2023/03/26 06:57:35;;;;;;;6.10;5.60;;;;;;;11.60;48.18;94613.94;4970336;28;20228;-66
2023/03/26 07:00:00;;;;;;;6.15;5.60;;;;;;;11.29;48.40;94619.06;4999969;28;20238;-65
2023/03/26 07:02:26;;;;;;;6.05;5.43;;;;;;;11.39;48.28;94625.00;4968182;28;20203;-67
2023/03/26 07:04:52;;;;;;;5.45;5.05;;;;;;;11.62;48.18;94634.81;4998421;28;20242;-68
2023/03/26 07:07:20;;;;;;;5.67;5.20;;;;;;;11.61;48.28;94634.00;4970378;28;20260;-68
2023/03/26 07:09:46;;;;;;;6.37;5.43;;;;;;;11.42;48.72;94640.44;4996646;28;20462;-68
2023/03/26 07:12:12;;;;;;;6.03;5.43;;;;;;;11.95;46.74;94635.59;4970587;28;20216;-66
2023/03/26 07:14:38;;;;;;;5.82;5.32;;;;;;;11.67;47.59;94624.59;4970689;28;20188;-69
2023/03/26 07:17:03;;;;;;;6.18;5.63;;;;;;;11.90;47.03;94632.66;4973894;28;20188;-65
2023/03/26 07:19:29;;;;;;;5.33;4.93;;;;;;;11.72;47.08;94630.19;4972664;28;20228;-67
2023/03/26 07:21:54;;;;;;;5.50;5.07;;;;;;;11.68;47.33;94620.97;4984451;28;20228;-65
2023/03/26 07:24:20;;;;;;;5.32;4.93;;;;;;;11.84;46.67;94630.66;4981262;28;20327;-66
2023/03/26 07:27:17;;;;;;;5.17;4.73;;;;;;;11.82;46.60;94622.94;4972247;28;20195;-64
2023/03/26 07:29:48;;;;;;;5.60;5.10;;;;;;;11.78;46.64;94618.16;4971686;28;20274;-67
2023/03/26 07:32:46;;;;;;;5.10;4.63;;;;;;;11.82;46.67;94617.66;4971960;28;20196;-68
2023/03/26 07:35:25;;;;;;;5.72;5.32;;;;;;;11.84;46.73;94614.84;4972295;28;20307;-68
2023/03/26 07:37:59;;;;;;;4.90;4.50;;;;;;;11.92;46.25;94614.84;4966808;28;20239;-68
2023/03/26 07:40:48;;;;;;;5.88;5.38;;;;;;;11.95;46.52;94614.53;4965715;28;20324;-68
2023/03/26 07:43:22;;;;;;;5.25;4.75;;;;;;;12.23;45.50;94622.81;4958504;28;20227;-68
2023/03/26 07:45:52;;;;;;;5.55;5.05;;;;;;;12.02;46.23;94617.28;4959203;28;20667;-67
2023/03/26 07:48:24;;;;;;;5.70;5.20;;;;;;;12.10;46.51;94617.25;4957479;28;20240;-67
2023/03/26 07:50:50;;;;;;;5.17;4.77;;;;;;;12.25;45.70;94614.75;4987019;28;20236;-67
2023/03/26 07:53:16;;;;;;;5.50;5.10;;;;;;;12.11;46.63;94614.47;4989332;28;20192;-66
2023/03/26 07:55:51;;;;;;;4.82;4.43;;;;;;;12.21;46.00;94602.88;4960847;28;20722;-67
2023/03/26 07:58:40;;;;;;;4.82;4.43;;;;;;;12.40;44.43;94612.19;4974892;28;20273;-68
2023/03/26 08:01:35;;;;;;;4.95;4.55;;;;;;;12.44;44.38;94610.84;4961999;28;20239;-68
2023/03/26 08:04:06;;;;;;;4.63;4.30;;;;;;;12.52;43.78;94602.91;4957717;28;20250;-68
2023/03/26 08:06:32;;;;;;;4.85;4.45;;;;;;;12.26;44.04;94611.91;4961711;28;20225;-67
2023/03/26 08:09:15;;;;;;;4.60;4.20;;;;;;;12.68;42.60;94602.78;4994684;28;20243;-67
2023/03/26 08:11:47;;;;;;;3.63;3.42;;;;;;;12.67;41.92;94593.25;4963941;28;20217;-67
2023/03/26 08:14:18;;;;;;;4.73;4.33;;;;;;;12.61;42.51;94596.56;4971052;28;20199;-67
2023/03/26 08:16:55;;;;;;;4.72;4.28;;;;;;;12.66;42.02;94594.22;4971694;28;20220;-69
2023/03/26 08:19:24;;;;;;;4.07;3.78;;;;;;;12.36;42.30;94596.72;4967191;28;20228;-66
2023/03/26 08:21:58;;;;;;;4.40;4.00;;;;;;;12.62;41.19;94606.13;4975826;28;20349;-68
2023/03/26 08:24:35;;;;;;;4.03;3.63;;;;;;;12.40;41.25;94588.44;4961097;28;20881;-69
2023/03/26 08:27:20;;;;;;;3.80;3.50;;;;;;;12.71;40.99;94605.09;4964237;28;20224;-66
2023/03/26 08:30:14;;;;;;;3.60;3.30;;;;;;;12.95;39.35;94600.63;4963084;28;20546;-65
2023/03/26 08:32:40;;;;;;;3.10;2.80;;;;;;;12.66;39.04;94604.78;4965172;28;20207;-63
2023/03/26 08:35:08;;;;;;;3.20;2.80;;;;;;;12.60;38.90;94607.31;4970105;28;20189;-63
2023/03/26 08:37:33;;;;;;;3.47;2.83;;;;;;;12.90;37.77;94595.88;4972415;28;20216;-64
2023/03/26 08:39:59;;;;;;;3.38;3.00;;;;;;;12.85;38.36;94592.13;4961527;28;20232;-67
2023/03/26 08:42:57;;;;;;;3.97;3.10;;;;;;;12.90;38.77;94597.69;4972759;28;20252;-68
2023/03/26 08:45:46;;;;;;;3.15;2.95;;;;;;;12.90;39.22;94605.63;4932448;29;20272;-65
2023/03/26 08:48:30;;;;;;;3.28;2.97;;;;;;;13.17;38.37;94606.88;4929520;29;20271;-65
2023/03/26 08:51:20;;;;;;;3.40;3.10;;;;;;;13.10;38.83;94595.41;4913746;29;20248;-64
2023/03/26 08:54:02;;;;;;;3.53;3.22;;;;;;;12.98;39.47;94598.44;4933834;29;20662;-63
2023/03/26 08:56:51;;;;;;;3.50;3.07;;;;;;;13.02;39.55;94598.94;4925736;29;20214;-66
2023/03/26 08:59:45;;;;;;;3.60;3.30;;;;;;;13.06;39.17;94604.69;4930021;29;20221;-65
2023/03/26 09:02:40;;;;;;;2.97;2.78;;;;;;;12.98;39.22;94587.91;4928228;29;20303;-65
2023/03/26 09:05:38;;;;;;;3.22;2.75;;;;;;;13.00;38.74;94600.94;4944443;29;20209;-65
2023/03/26 09:08:40;;;;;;;2.80;2.15;;;;;;;13.44;36.53;94602.88;4911903;29;20218;-66
2023/03/26 09:11:05;;;;;;;2.25;2.05;;;;;;;13.47;34.53;94602.53;4935150;29;20225;-65
2023/03/26 09:13:52;;;;;;;2.47;2.22;;;;;;;13.61;35.43;94599.09;4940047;29;20631;-63
2023/03/26 09:16:52;;;;;;;2.58;2.30;;;;;;;13.30;37.10;94599.22;4939117;29;20248;-65
2023/03/26 09:19:29;;;;;;;3.45;2.67;;;;;;;13.40;37.14;94607.72;4926363;28;20237;-66
2023/03/26 09:22:16;;;;;;;4.13;2.10;;;;;;;13.59;35.18;94589.72;4923610;29;20232;-66
2023/03/26 09:24:41;;;;;;;1.95;1.70;;;;;;;13.27;36.38;94591.66;4922019;28;20262;-65
2023/03/26 09:27:34;;;;;;;2.08;1.98;;;;;;;13.45;35.91;94586.88;4920547;29;20234;-65
2023/03/26 09:30:05;;;;;;;2.25;2.05;;;;;;;13.43;36.39;94580.13;4921143;28;20227;-66
2023/03/26 09:32:58;;;;;;;2.25;2.05;;;;;;;13.73;34.88;94580.16;4916243;29;20306;-66
2023/03/26 09:35:32;;;;;;;2.20;1.90;;;;;;;13.94;33.25;94582.88;4920954;29;20201;-66
2023/03/26 09:38:12;;;;;;;1.60;1.50;;;;;;;14.02;33.47;94587.25;4919042;29;20239;-65
2023/03/26 09:41:15;;;;;;;2.38;1.77;;;;;;;14.06;33.58;94584.09;4919384;29;20226;-63
2023/03/26 09:44:14;;;;;;;2.38;2.17;;;;;;;13.92;34.79;94573.50;4914726;29;20228;-63
2023/03/26 09:46:57;;;;;;;2.22;1.90;;;;;;;14.12;35.60;94575.41;4937679;29;20233;-63
2023/03/26 09:49:44;;;;;;;2.75;1.90;;;;;;;14.36;34.52;94570.81;4923689;29;20222;-64
2023/03/26 09:52:15;;;;;;;2.45;1.80;;;;;;;14.06;35.06;94570.88;4924815;29;20221;-63
2023/03/26 09:55:06;;;;;;;2.58;2.13;;;;;;;14.11;35.25;94557.91;4925743;29;20268;-63
2023/03/26 09:57:52;;;;;;;3.30;2.00;;;;;;;14.38;34.12;94557.38;4901109;29;20312;-63
2023/03/26 10:00:36;;;;;;;1.70;1.60;;;;;;;14.22;35.02;94561.91;4890216;29;20258;-63
2023/03/26 10:03:24;;;;;;;2.67;1.50;;;;;;;14.51;33.43;94560.19;4869285;29;20271;-63
2023/03/26 10:06:15;;;;;;;2.33;1.45;;;;;;;14.55;33.64;94548.25;4889308;29;20235;-66
2023/03/26 10:09:08;;;;;;;1.58;1.40;;;;;;;14.45;33.10;94545.88;4887928;29;20262;-66
2023/03/26 10:11:52;;;;;;;1.30;1.20;;;;;;;14.33;32.17;94555.31;4909108;29;20194;-67
2023/03/26 10:14:24;;;;;;;2.92;1.40;;;;;;;14.36;33.00;94525.84;4888611;29;20200;-66
2023/03/26 10:17:19;;;;;;;1.60;1.50;;;;;;;14.72;32.76;94523.19;4886489;29;20230;-67
2023/03/26 10:19:56;;;;;;;2.13;1.50;;;;;;;14.41;33.53;94531.41;4890446;29;20226;-66
2023/03/26 10:22:47;;;;;;;1.98;1.55;;;;;;;14.58;33.01;94510.84;4898590;29;20253;-66
2023/03/26 10:25:37;;;;;;;2.80;1.30;;;;;;;14.86;31.22;94505.63;4903160;29;20234;-66
2023/03/26 10:28:19;;;;;;;1.35;1.13;;;;;;;15.06;31.35;94512.91;4908051;29;20225;-66
2023/03/26 10:31:21;;;;;;;1.17;1.08;;;;;;;14.95;31.25;94508.94;4913813;29;20221;-66
2023/03/26 10:34:01;;;;;;;1.35;1.23;;;;;;;15.04;30.12;94486.59;4909055;29;20305;-67
2023/03/26 10:36:32;;;;;;;2.35;1.20;;;;;;;15.12;29.63;94501.53;4978269;28;20223;-66
2023/03/26 10:39:16;;;;;;;1.42;1.30;;;;;;;15.24;28.96;94494.72;4964844;28;20247;-64
2023/03/26 10:41:44;;;;;;;1.35;1.25;;;;;;;15.41;29.06;94477.47;4961394;28;20251;-63
2023/03/26 10:44:32;;;;;;;2.08;1.45;;;;;;;15.40;29.68;94496.25;4993566;28;20184;-64
2023/03/26 10:47:00;;;;;;;0.93;0.90;;;;;;;15.44;29.11;94490.34;4994516;28;20224;-64
2023/03/26 10:50:10;;;;;;;1.27;1.17;;;;;;;15.60;28.97;94483.91;4968059;28;20228;-64
2023/03/26 10:53:06;;;;;;;1.52;1.20;;;;;;;15.51;28.40;94478.97;4990315;28;20231;-64
2023/03/26 10:55:41;;;;;;;1.10;1.00;;;;;;;15.44;28.07;94471.78;4994870;28;20236;-64
2023/03/26 10:58:15;;;;;;;2.03;1.00;;;;;;;15.44;28.39;94469.16;4953445;28;20239;-64
2023/03/26 11:00:54;;;;;;;2.25;1.33;;;;;;;15.62;27.92;94468.63;4965420;28;20234;-64
2023/03/26 11:03:50;;;;;;;1.52;1.20;;;;;;;16.20;26.94;94468.31;4966061;28;20291;-63
2023/03/26 11:06:24;;;;;;;1.38;0.90;;;;;;;15.99;27.43;94468.44;4962432;28;20307;-63
2023/03/26 11:09:04;;;;;;;1.52;1.30;;;;;;;16.06;26.93;94461.28;4996228;28;20229;-63
2023/03/26 11:11:54;;;;;;;0.90;0.90;;;;;;;16.25;26.74;94459.72;4958751;28;20188;-63
2023/03/26 11:14:41;;;;;;;3.08;1.00;;;;;;;16.43;25.96;94461.81;4964743;28;20197;-64
2023/03/26 11:17:26;;;;;;;0.90;0.75;;;;;;;16.16;26.12;94464.41;4961384;28;20228;-68
2023/03/26 11:20:06;;;;;;;1.00;0.85;;;;;;;16.38;25.58;94450.97;4990555;28;20223;-68
2023/03/26 11:22:49;;;;;;;1.35;0.85;;;;;;;16.32;25.41;94452.59;4969473;28;20304;-68
2023/03/26 11:25:27;;;;;;;1.13;0.80;;;;;;;16.60;25.01;94455.13;4993004;28;20268;-68
2023/03/26 11:28:15;;;;;;;1.75;0.90;;;;;;;16.78;25.38;94459.84;4952106;28;20221;-68
2023/03/26 11:31:02;;;;;;;1.00;0.90;;;;;;;16.95;24.94;94447.00;4973894;28;20610;-68
2023/03/26 11:33:36;;;;;;;1.92;1.00;;;;;;;16.89;24.65;94440.66;4945498;28;20713;-68
2023/03/26 11:36:13;;;;;;;1.00;0.90;;;;;;;17.10;24.51;94450.22;4954878;28;20321;-68
2023/03/26 11:38:43;;;;;;;1.63;0.90;;;;;;;16.92;24.55;94434.09;4964660;28;20287;-68
2023/03/26 11:41:24;;;;;;;1.02;0.98;;;;;;;16.98;24.86;94442.06;4967700;28;20189;-68
2023/03/26 11:43:58;;;;;;;1.58;0.95;;;;;;;17.24;24.99;94432.47;4963788;28;20236;-68
2023/03/26 11:46:25;;;;;;;0.88;0.80;;;;;;;17.37;23.75;94410.34;4963224;28;20242;-68
2023/03/26 11:49:02;;;;;;;1.00;0.80;;;;;;;17.10;23.25;94415.69;4970670;28;20229;-68
2023/03/26 11:51:33;;;;;;;1.80;0.75;;;;;;;17.14;23.13;94406.31;4977768;28;20236;-68
2023/03/26 11:54:04;;;;;;;2.00;0.88;;;;;;;17.20;24.48;94397.50;4964454;28;20221;-68
2023/03/26 11:56:41;;;;;;;1.10;1.00;;;;;;;17.35;24.22;94383.19;4966040;28;20190;-68
2023/03/26 11:59:22;;;;;;;0.80;0.80;;;;;;;17.58;23.45;94380.81;4963937;28;20208;-68
2023/03/26 12:02:03;;;;;;;2.53;1.92;;;;;;;17.75;22.84;94367.03;4977432;28;20310;-68